createdAt,value
2023-03-26T00:01:07.778Z,10.18
2023-03-26T00:03:35.248Z,10.01
2023-03-26T00:06:04.500Z,10.79
2023-03-26T00:08:30.951Z,10.73
2023-03-26T00:10:58.056Z,10.71
2023-03-26T00:13:25.241Z,10.66
2023-03-26T00:15:52.895Z,10.03
2023-03-26T00:18:21.510Z,11.10
2023-03-26T00:20:48.068Z,11.47
2023-03-26T00:23:14.551Z,10.53
2023-03-26T00:25:42.134Z,10.58
2023-03-26T00:28:08.702Z,10.45
2023-03-26T00:30:35.846Z,10.42
2023-03-26T00:33:02.822Z,11.25
2023-03-26T00:35:29.873Z,10.26
2023-03-26T00:37:58.279Z,11.20
2023-03-26T00:40:24.697Z,10.95
2023-03-26T00:42:51.102Z,10.90
2023-03-26T00:45:21.206Z,10.50
2023-03-26T00:47:48.076Z,10.72
2023-03-26T00:50:16.319Z,10.28
2023-03-26T00:52:45.055Z,10.14
2023-03-26T00:55:12.520Z,10.94
2023-03-26T00:57:40.260Z,10.39
2023-03-26T01:00:15.274Z,10.42
2023-03-26T01:02:45.042Z,10.83
2023-03-26T01:05:36.582Z,10.72
2023-03-26T01:08:15.101Z,10.39
2023-03-26T01:10:43.383Z,10.23
2023-03-26T01:13:10.422Z,10.84
2023-03-26T01:15:37.354Z,9.70
2023-03-26T01:18:09.875Z,10.22
2023-03-26T01:20:46.885Z,10.71
2023-03-26T01:23:20.077Z,10.76
2023-03-26T01:25:58.705Z,10.57
2023-03-26T01:28:31.970Z,10.35
2023-03-26T01:31:25.106Z,10.10
2023-03-26T01:34:04.415Z,10.11
2023-03-26T01:36:57.056Z,9.99
2023-03-26T01:39:38.806Z,9.63
2023-03-26T01:42:11.736Z,9.68
2023-03-26T01:44:48.578Z,9.44
2023-03-26T01:47:17.698Z,10.08
2023-03-26T01:49:44.104Z,10.52
2023-03-26T01:52:16.096Z,10.87
2023-03-26T01:54:46.422Z,9.87
2023-03-26T01:57:34.588Z,9.75
2023-03-26T02:00:19.463Z,10.45
2023-03-26T02:03:09.869Z,10.53
2023-03-26T02:05:55.084Z,9.93
2023-03-26T02:08:37.651Z,9.95
2023-03-26T02:11:13.142Z,10.52
2023-03-26T02:13:42.933Z,10.42
2023-03-26T02:16:16.375Z,10.64
2023-03-26T02:18:45.584Z,10.25
2023-03-26T02:21:15.402Z,10.42
2023-03-26T02:23:46.552Z,10.19
2023-03-26T02:26:16.063Z,10.17
2023-03-26T02:28:42.521Z,9.98
2023-03-26T02:31:13.799Z,10.58
2023-03-26T02:33:40.448Z,10.37
2023-03-26T02:36:08.541Z,10.16
2023-03-26T02:38:35.233Z,10.02
2023-03-26T02:41:02.730Z,10.06
2023-03-26T02:43:29.357Z,10.44
2023-03-26T02:45:56.143Z,10.03
2023-03-26T02:48:23.124Z,9.67
2023-03-26T02:50:54.164Z,10.60
2023-03-26T02:53:29.720Z,10.38
2023-03-26T02:55:57.685Z,10.90
2023-03-26T02:58:26.332Z,10.00
2023-03-26T03:00:56.758Z,10.76
2023-03-26T03:03:27.465Z,10.26
2023-03-26T03:05:55.294Z,10.35
2023-03-26T03:08:26.224Z,10.47
2023-03-26T03:11:00.749Z,10.23
2023-03-26T03:13:28.527Z,10.00
2023-03-26T03:15:56.086Z,10.75
2023-03-26T03:18:22.706Z,10.41
2023-03-26T03:20:49.898Z,10.11
2023-03-26T03:23:17.175Z,10.21
2023-03-26T03:25:43.864Z,10.45
2023-03-26T03:28:11.147Z,9.92
2023-03-26T03:30:37.862Z,9.94
2023-03-26T03:33:06.074Z,10.41
2023-03-26T03:35:33.580Z,10.63
2023-03-26T03:38:00.413Z,10.72
2023-03-26T03:40:27.203Z,10.33
2023-03-26T03:42:53.613Z,10.79
2023-03-26T03:45:20.190Z,9.80
2023-03-26T03:47:46.668Z,10.57
2023-03-26T03:50:13.106Z,10.51
2023-03-26T03:52:39.592Z,10.30
2023-03-26T03:55:06.255Z,10.18
2023-03-26T03:57:33.177Z,10.77
2023-03-26T03:59:59.626Z,9.98
2023-03-26T04:02:30.188Z,10.34
2023-03-26T04:05:00.089Z,9.98
2023-03-26T04:07:30.593Z,9.74
2023-03-26T04:09:57.288Z,10.25
2023-03-26T04:12:23.671Z,10.31
2023-03-26T04:14:50.190Z,10.50
2023-03-26T04:17:16.645Z,10.75
2023-03-26T04:19:44.178Z,11.21
2023-03-26T04:22:11.899Z,10.74
2023-03-26T04:24:40.223Z,10.19
2023-03-26T04:27:10.878Z,10.42
2023-03-26T04:29:43.661Z,10.95
2023-03-26T04:32:34.083Z,10.63
2023-03-26T04:35:03.991Z,10.80
2023-03-26T04:37:36.543Z,10.27
2023-03-26T04:40:10.550Z,10.90
2023-03-26T04:42:41.500Z,10.81
2023-03-26T04:45:09.165Z,10.28
2023-03-26T04:47:37.010Z,10.62
2023-03-26T04:50:05.320Z,10.46
2023-03-26T04:52:31.860Z,10.35
2023-03-26T04:54:58.364Z,10.10
2023-03-26T04:57:46.539Z,11.02
2023-03-26T05:00:18.433Z,10.60
2023-03-26T05:02:45.861Z,10.12
2023-03-26T05:05:12.417Z,10.53
2023-03-26T05:07:38.939Z,10.28
2023-03-26T05:10:06.134Z,10.72
2023-03-26T05:12:32.574Z,10.59
2023-03-26T05:14:59.031Z,10.54
2023-03-26T05:17:26.642Z,9.69
2023-03-26T05:19:53.152Z,10.52
2023-03-26T05:22:19.572Z,10.64
2023-03-26T05:24:46.133Z,10.11
2023-03-26T05:27:20.181Z,10.15
2023-03-26T05:29:46.623Z,10.22
2023-03-26T05:32:13.400Z,10.72
2023-03-26T05:34:40.992Z,10.31
2023-03-26T05:37:09.089Z,10.37
2023-03-26T05:39:35.572Z,10.74
2023-03-26T05:42:02.567Z,10.72
2023-03-26T05:44:29.099Z,10.74
2023-03-26T05:46:55.584Z,11.03
2023-03-26T05:49:22.145Z,11.25
2023-03-26T05:51:48.632Z,11.12
2023-03-26T05:54:15.266Z,10.73
2023-03-26T05:56:41.747Z,10.63
2023-03-26T05:59:08.318Z,10.78
2023-03-26T06:01:34.780Z,11.04
2023-03-26T06:04:01.405Z,10.46
2023-03-26T06:06:27.953Z,10.30
2023-03-26T06:09:01.578Z,10.54
2023-03-26T06:11:29.983Z,10.06
2023-03-26T06:13:56.512Z,9.87
2023-03-26T06:16:26.199Z,11.12
2023-03-26T06:18:56.802Z,11.20
2023-03-26T06:21:25.646Z,10.94
2023-03-26T06:23:52.631Z,10.91
2023-03-26T06:26:19.129Z,10.80
2023-03-26T06:28:45.557Z,11.24
2023-03-26T06:31:12.132Z,11.40
2023-03-26T06:33:38.663Z,11.71
2023-03-26T06:36:05.522Z,11.81
2023-03-26T06:38:32.144Z,11.82
2023-03-26T06:41:06.180Z,11.82
2023-03-26T06:43:33.845Z,11.76
2023-03-26T06:46:04.233Z,11.43
2023-03-26T06:48:31.196Z,11.28
2023-03-26T06:50:57.853Z,11.40
2023-03-26T06:53:24.253Z,10.86
2023-03-26T06:55:50.877Z,11.46
2023-03-26T06:58:17.316Z,11.62
2023-03-26T07:00:43.865Z,11.76
2023-03-26T07:03:11.407Z,11.70
2023-03-26T07:05:38.791Z,11.63
2023-03-26T07:08:05.761Z,12.04
2023-03-26T07:10:32.857Z,11.03
2023-03-26T07:12:59.286Z,11.65
2023-03-26T07:15:27.954Z,11.61
2023-03-26T07:17:55.534Z,12.14
2023-03-26T07:20:22.387Z,11.60
2023-03-26T07:22:49.321Z,11.32
2023-03-26T07:25:17.218Z,11.75
2023-03-26T07:28:12.260Z,11.98
2023-03-26T07:30:50.553Z,12.45
2023-03-26T07:33:26.287Z,12.31
2023-03-26T07:35:58.868Z,12.31
2023-03-26T07:38:33.211Z,12.62
2023-03-26T07:41:26.804Z,11.87
2023-03-26T07:44:01.987Z,12.69
2023-03-26T07:46:34.915Z,12.64
2023-03-26T07:49:01.875Z,12.70
2023-03-26T07:51:29.086Z,12.05
2023-03-26T07:53:56.243Z,11.84
2023-03-26T07:56:34.682Z,12.25
2023-03-26T07:59:33.231Z,12.78
2023-03-26T08:02:41.452Z,11.31
2023-03-26T08:05:11.021Z,12.73
2023-03-26T08:07:51.513Z,11.49
2023-03-26T08:10:27.202Z,11.34
2023-03-26T08:13:16.084Z,11.36
2023-03-26T08:16:15.550Z,11.98
2023-03-26T08:19:19.507Z,12.32
2023-03-26T08:21:55.565Z,12.16
2023-03-26T08:24:33.223Z,12.22
2023-03-26T08:27:23.016Z,12.51
2023-03-26T08:30:18.777Z,11.47
2023-03-26T08:32:54.889Z,11.86
2023-03-26T08:35:21.395Z,12.27
2023-03-26T08:37:48.110Z,12.88
2023-03-26T08:40:29.827Z,12.97
2023-03-26T08:43:31.919Z,13.22
2023-03-26T08:46:05.597Z,12.80
2023-03-26T08:49:15.915Z,12.83
2023-03-26T08:51:45.243Z,12.54
2023-03-26T08:54:27.999Z,13.10
2023-03-26T08:56:57.129Z,12.16
2023-03-26T08:59:51.200Z,12.49
2023-03-26T09:02:47.867Z,12.81
2023-03-26T09:05:41.363Z,12.79
2023-03-26T09:08:54.320Z,12.83
2023-03-26T09:11:53.208Z,13.06
2023-03-26T09:14:41.037Z,13.73
2023-03-26T09:17:38.371Z,13.47
2023-03-26T09:20:08.724Z,13.73
2023-03-26T09:22:56.272Z,12.87
2023-03-26T09:25:49.311Z,13.50
2023-03-26T09:28:54.826Z,13.25
2023-03-26T09:32:00.512Z,13.57
2023-03-26T09:35:11.879Z,13.86
2023-03-26T09:37:57.049Z,13.52
2023-03-26T09:40:58.430Z,14.83
2023-03-26T09:43:40.191Z,14.27
2023-03-26T09:46:25.563Z,14.56
2023-03-26T09:49:09.618Z,15.21
2023-03-26T09:51:59.880Z,15.33
2023-03-26T09:54:44.455Z,14.25
2023-03-26T09:57:45.428Z,14.23
2023-03-26T10:00:27.346Z,14.78
2023-03-26T10:03:12.546Z,13.74
2023-03-26T10:05:53.740Z,14.40
2023-03-26T10:08:25.038Z,14.45
2023-03-26T10:11:07.810Z,13.81
2023-03-26T10:13:48.134Z,15.28
2023-03-26T10:16:24.562Z,14.14
2023-03-26T10:19:03.168Z,13.98
2023-03-26T10:21:47.711Z,13.98
2023-03-26T10:25:01.293Z,13.57
2023-03-26T10:27:39.790Z,14.49
2023-03-26T10:30:21.235Z,15.00
2023-03-26T10:33:03.226Z,14.46
2023-03-26T10:35:38.842Z,14.63
2023-03-26T10:38:20.687Z,14.27
2023-03-26T10:40:59.680Z,14.79
2023-03-26T10:43:26.199Z,13.98
2023-03-26T10:46:22.782Z,13.18
2023-03-26T10:49:31.375Z,15.10
2023-03-26T10:52:09.696Z,13.94
2023-03-26T10:54:42.027Z,14.31
2023-03-26T10:57:20.810Z,15.40
2023-03-26T11:02:32.695Z,14.43
2023-03-26T11:05:04.257Z,14.70
2023-03-26T11:07:44.168Z,15.16
2023-03-26T11:10:36.832Z,14.26
2023-03-26T11:13:29.929Z,13.56
2023-03-26T11:16:11.568Z,14.90
2023-03-26T11:18:56.640Z,14.28
2023-03-26T11:21:39.459Z,13.67
2023-03-26T11:24:24.585Z,14.38
2023-03-26T11:27:14.928Z,14.70
2023-03-26T11:29:46.609Z,14.88
2023-03-26T11:32:17.580Z,14.26
2023-03-26T11:34:56.399Z,14.97
2023-03-26T11:37:34.062Z,14.18
2023-03-26T11:40:06.134Z,15.05
2023-03-26T11:42:32.646Z,14.81
2023-03-26T11:45:03.121Z,15.03
2023-03-26T11:47:41.583Z,14.06
2023-03-26T11:50:16.671Z,14.03
2023-03-26T11:52:44.087Z,15.26
2023-03-26T11:55:12.962Z,14.73
2023-03-26T11:57:45.513Z,14.13
2023-03-26T12:00:20.929Z,15.14
2023-03-26T12:02:48.502Z,14.58
2023-03-26T12:05:26.310Z,14.61
2023-03-26T12:08:00.169Z,14.90
2023-03-26T12:10:37.577Z,15.56
2023-03-26T12:13:22.984Z,15.12
2023-03-26T12:15:49.623Z,15.27
2023-03-26T12:18:34.165Z,15.44
2023-03-26T12:21:10.734Z,15.13
2023-03-26T12:23:43.599Z,15.21
2023-03-26T12:26:20.781Z,14.26
2023-03-26T12:28:49.635Z,15.00
2023-03-26T12:31:19.043Z,15.02
2023-03-26T12:34:04.017Z,15.22
2023-03-26T12:36:33.247Z,15.51
2023-03-26T12:39:43.099Z,15.91
2023-03-26T12:44:44.117Z,15.64
2023-03-26T12:44:59.036Z,15.55
2023-03-26T12:47:56.942Z,14.22
2023-03-26T12:50:16.464Z,15.61
2023-03-26T12:53:16.194Z,15.41
2023-03-26T12:55:57.640Z,13.96
2023-03-26T12:58:45.209Z,14.78
2023-03-26T13:01:35.780Z,14.60
2023-03-26T13:04:04.877Z,14.18
2023-03-26T13:07:00.333Z,15.11
2023-03-26T13:09:28.618Z,15.52
2023-03-26T13:12:17.342Z,15.59
2023-03-26T13:15:02.503Z,15.14
2023-03-26T13:17:54.834Z,14.25
2023-03-26T13:20:26.474Z,15.10
2023-03-26T13:23:08.291Z,15.48
2023-03-26T13:25:44.978Z,15.67
2023-03-26T13:28:26.550Z,15.75
2023-03-26T13:31:02.077Z,15.81
2023-03-26T13:33:48.682Z,14.51
2023-03-26T13:36:24.349Z,13.44
2023-03-26T13:39:09.445Z,14.05
2023-03-26T13:41:45.256Z,14.94
2023-03-26T13:44:33.340Z,14.69
2023-03-26T13:47:07.155Z,15.20
2023-03-26T13:49:40.635Z,14.45
2023-03-26T13:52:12.426Z,15.38
2023-03-26T13:54:42.456Z,15.78
2023-03-26T13:57:24.056Z,15.20
2023-03-26T14:00:13.884Z,14.53
2023-03-26T14:02:42.815Z,15.51
2023-03-26T14:05:21.449Z,14.71
2023-03-26T14:07:54.863Z,14.50
2023-03-26T14:10:26.186Z,15.53
2023-03-26T14:13:16.204Z,15.61
2023-03-26T14:16:12.201Z,15.89
2023-03-26T14:18:41.623Z,15.83
2023-03-26T14:21:28.789Z,15.66
2023-03-26T14:24:09.459Z,15.08
2023-03-26T14:26:41.945Z,15.41
2023-03-26T14:29:33.160Z,15.39
2023-03-26T14:31:59.574Z,15.07
2023-03-26T14:34:56.592Z,15.42
2023-03-26T14:37:35.634Z,15.35
2023-03-26T14:40:26.985Z,14.29
2023-03-26T14:43:14.748Z,14.28
2023-03-26T14:46:14.473Z,14.70
2023-03-26T14:48:56.274Z,14.24
2023-03-26T14:51:53.292Z,13.78
2023-03-26T14:54:27.250Z,12.65
2023-03-26T14:57:18.472Z,12.99
2023-03-26T15:00:15.580Z,12.71
2023-03-26T15:02:58.784Z,12.81
2023-03-26T15:05:44.068Z,12.48
2023-03-26T15:08:34.297Z,12.58
2023-03-26T15:11:31.195Z,13.24
2023-03-26T15:14:19.559Z,12.70
2023-03-26T15:17:01.702Z,13.09
2023-03-26T15:19:49.266Z,12.42
2023-03-26T15:22:46.654Z,11.85
2023-03-26T15:25:31.985Z,11.98
2023-03-26T15:28:36.659Z,12.23
2023-03-26T15:31:48.078Z,11.94
2023-03-26T15:34:55.833Z,11.17
2023-03-26T15:37:59.491Z,11.42
2023-03-26T15:40:25.943Z,11.80
2023-03-26T15:42:52.561Z,12.09
2023-03-26T15:45:32.350Z,12.28
2023-03-26T15:48:11.771Z,12.75
2023-03-26T15:50:59.734Z,12.79
2023-03-26T15:53:53.474Z,12.45
2023-03-26T15:56:35.180Z,12.44
2023-03-26T15:59:16.396Z,12.39
2023-03-26T16:02:02.704Z,12.68
2023-03-26T16:05:14.411Z,12.70
2023-03-26T16:08:02.923Z,12.03
2023-03-26T16:10:44.490Z,11.55
2023-03-26T16:13:17.289Z,12.09
2023-03-26T16:15:55.651Z,11.82
2023-03-26T16:18:29.782Z,12.64
2023-03-26T16:21:31.659Z,12.79
2023-03-26T16:24:02.013Z,12.62
2023-03-26T16:26:31.592Z,12.09
2023-03-26T16:29:26.016Z,12.05
2023-03-26T16:32:26.001Z,11.76
2023-03-26T16:35:03.631Z,11.32
2023-03-26T16:37:36.344Z,11.61
2023-03-26T16:40:18.478Z,11.11
2023-03-26T16:43:18.619Z,10.79
2023-03-26T16:46:16.386Z,11.84
2023-03-26T16:49:09.652Z,11.79
2023-03-26T16:51:39.922Z,12.56
2023-03-26T16:54:18.638Z,11.92
2023-03-26T16:57:21.694Z,12.03
2023-03-26T17:00:07.613Z,11.90
2023-03-26T17:02:42.954Z,12.22
2023-03-26T17:05:52.741Z,12.87
2023-03-26T17:08:42.619Z,11.93
2023-03-26T17:11:36.170Z,12.18
2023-03-26T17:14:17.632Z,11.55
2023-03-26T17:17:02.648Z,11.47
2023-03-26T17:19:55.241Z,11.66
2023-03-26T17:22:51.678Z,11.99
2023-03-26T17:25:41.360Z,11.69
2023-03-26T17:28:53.642Z,12.31
2023-03-26T17:31:38.749Z,12.01
2023-03-26T17:34:33.598Z,11.50
2023-03-26T17:37:03.144Z,10.86
2023-03-26T17:39:38.655Z,11.77
2023-03-26T17:42:35.985Z,11.67
2023-03-26T17:45:03.691Z,11.55
2023-03-26T17:47:38.942Z,11.76
2023-03-26T17:50:16.876Z,11.82
2023-03-26T17:53:05.816Z,11.60
2023-03-26T17:55:36.925Z,10.77
2023-03-26T17:58:20.682Z,10.37
2023-03-26T18:00:56.770Z,11.52
2023-03-26T18:03:30.885Z,11.57
2023-03-26T18:06:23.673Z,11.25
2023-03-26T18:09:19.186Z,11.83
2023-03-26T18:12:13.961Z,11.98
2023-03-26T18:14:47.349Z,11.56
2023-03-26T18:17:13.796Z,11.61
2023-03-26T18:19:54.622Z,11.59
2023-03-26T18:22:25.556Z,12.04
2023-03-26T18:24:58.848Z,11.94
2023-03-26T18:27:32.845Z,11.37
2023-03-26T18:30:14.236Z,12.08
2023-03-26T18:32:52.664Z,11.89
2023-03-26T18:35:23.218Z,11.22
2023-03-26T18:37:53.402Z,11.72
2023-03-26T18:40:22.056Z,11.61
2023-03-26T18:42:55.693Z,12.13
2023-03-26T18:45:25.280Z,10.75
2023-03-26T18:48:04.797Z,11.74
2023-03-26T18:50:36.941Z,11.17
2023-03-26T18:53:06.888Z,12.09
2023-03-26T18:55:39.198Z,12.00
2023-03-26T18:58:22.670Z,11.75
2023-03-26T19:00:52.822Z,11.38
2023-03-26T19:03:24.106Z,11.62
2023-03-26T19:05:56.432Z,11.47
2023-03-26T19:08:24.571Z,11.83
2023-03-26T19:10:53.028Z,11.55
2023-03-26T19:13:21.389Z,11.66
2023-03-26T19:15:51.104Z,11.67
2023-03-26T19:18:28.226Z,11.60
2023-03-26T19:20:58.800Z,11.47
2023-03-26T19:23:31.753Z,11.52
2023-03-26T19:26:01.565Z,11.62
2023-03-26T19:28:30.046Z,11.72
2023-03-26T19:31:24.715Z,11.76
2023-03-26T19:34:14.197Z,11.51
2023-03-26T19:37:01.079Z,11.17
2023-03-26T19:39:41.569Z,11.12
2023-03-26T19:42:18.301Z,11.24
2023-03-26T19:44:45.235Z,10.02
2023-03-26T19:47:17.940Z,11.10
2023-03-26T19:49:47.083Z,10.99
2023-03-26T19:52:14.817Z,9.95
2023-03-26T19:54:59.303Z,10.63
2023-03-26T19:57:29.115Z,10.50
2023-03-26T19:59:55.730Z,10.40
2023-03-26T20:02:22.659Z,10.66
2023-03-26T20:04:49.212Z,10.33
2023-03-26T20:07:20.205Z,10.75
2023-03-26T20:09:52.430Z,10.11
2023-03-26T20:12:19.712Z,9.36
2023-03-26T20:14:46.487Z,10.25
2023-03-26T20:17:18.608Z,9.96
2023-03-26T20:19:46.949Z,9.98
2023-03-26T20:22:20.620Z,10.15
2023-03-26T20:24:47.432Z,10.05
2023-03-26T20:27:14.343Z,10.27
2023-03-26T20:29:42.081Z,10.39
2023-03-26T20:32:20.345Z,9.81
2023-03-26T20:34:49.588Z,10.43
2023-03-26T20:37:17.447Z,9.89
2023-03-26T20:39:43.917Z,9.73
2023-03-26T20:42:12.217Z,10.15
2023-03-26T20:44:40.548Z,9.42
2023-03-26T20:47:07.487Z,8.94
2023-03-26T20:49:33.911Z,8.74
2023-03-26T20:52:00.540Z,9.15
2023-03-26T20:54:27.606Z,9.98
2023-03-26T20:56:54.178Z,10.05
2023-03-26T20:59:26.250Z,9.68
2023-03-26T21:01:54.541Z,9.72
2023-03-26T21:04:21.785Z,9.62
2023-03-26T21:06:48.996Z,9.70
2023-03-26T21:09:18.067Z,9.70
2023-03-26T21:11:53.699Z,8.85
2023-03-26T21:14:29.374Z,9.35
2023-03-26T21:16:56.557Z,8.73
2023-03-26T21:19:24.079Z,8.87
2023-03-26T21:22:04.651Z,9.07
2023-03-26T21:24:46.728Z,9.25
2023-03-26T21:28:07.590Z,8.60
2023-03-26T21:30:34.757Z,8.82
2023-03-26T21:33:02.260Z,8.79
2023-03-26T21:35:29.218Z,8.63
2023-03-26T21:37:57.564Z,8.74
2023-03-26T21:40:24.268Z,9.09
2023-03-26T21:42:53.453Z,8.80
2023-03-26T21:45:21.088Z,8.74
2023-03-26T21:47:48.258Z,8.26
2023-03-26T21:50:18.168Z,8.70
2023-03-26T21:52:50.901Z,8.55
2023-03-26T21:55:17.322Z,8.65
2023-03-26T21:58:01.650Z,8.91
2023-03-26T22:00:43.793Z,8.15
2023-03-26T22:03:37.425Z,8.77
2023-03-26T22:06:23.016Z,8.22
2023-03-26T22:08:49.603Z,8.47
2023-03-26T22:11:16.090Z,8.66
2023-03-26T22:13:42.511Z,7.84
2023-03-26T22:16:10.597Z,8.54
2023-03-26T22:18:37.211Z,8.47
2023-03-26T22:21:04.606Z,8.23
2023-03-26T22:23:36.261Z,8.66
2023-03-26T22:26:04.608Z,7.91
2023-03-26T22:28:31.461Z,8.70
2023-03-26T22:30:58.485Z,8.65
2023-03-26T22:33:25.676Z,8.26
2023-03-26T22:35:52.389Z,7.89
2023-03-26T22:38:19.161Z,8.18
2023-03-26T22:40:45.595Z,8.35
2023-03-26T22:43:12.217Z,8.65
2023-03-26T22:45:38.614Z,8.03
2023-03-26T22:48:05.244Z,8.20
2023-03-26T22:50:32.790Z,8.51
2023-03-26T22:52:59.360Z,8.45
2023-03-26T22:55:28.493Z,8.43
2023-03-26T22:57:55.722Z,8.30
2023-03-26T23:00:22.266Z,8.38
2023-03-26T23:02:48.912Z,8.40
2023-03-26T23:05:18.380Z,8.27
2023-03-26T23:07:46.036Z,8.76
2023-03-26T23:10:13.527Z,7.91
2023-03-26T23:12:40.308Z,8.61
2023-03-26T23:15:07.986Z,8.11
2023-03-26T23:17:36.020Z,8.64
2023-03-26T23:20:06.111Z,8.83
2023-03-26T23:22:32.547Z,8.58
2023-03-26T23:24:59.118Z,8.18
2023-03-26T23:27:25.545Z,8.64
2023-03-26T23:29:51.955Z,8.45
2023-03-26T23:32:23.721Z,7.87
2023-03-26T23:34:52.300Z,8.28
2023-03-26T23:37:23.211Z,7.35
2023-03-26T23:39:52.824Z,8.10
2023-03-26T23:42:28.598Z,7.67
2023-03-26T23:44:56.547Z,8.07
2023-03-26T23:47:23.055Z,8.52
2023-03-26T23:49:49.913Z,8.09
2023-03-26T23:52:16.618Z,7.93
2023-03-26T23:54:43.055Z,8.33
2023-03-26T23:57:10.547Z,7.92
2023-03-26T23:59:37.062Z,8.10
